createdAt,value
2022-10-05T00:00:55.128Z,100812.09
2022-10-05T00:03:33.797Z,100812.25
2022-10-05T00:06:07.736Z,100816.75
2022-10-05T00:08:42.474Z,100818.16
2022-10-05T00:11:18.916Z,100809.81
2022-10-05T00:13:52.965Z,100809.09
2022-10-05T00:16:28.411Z,100798.59
2022-10-05T00:19:01.906Z,100796.97
2022-10-05T00:21:35.453Z,100787.31
2022-10-05T00:24:11.725Z,100784.81
2022-10-05T00:26:52.881Z,100781.41
2022-10-05T00:29:32.308Z,100774.53
2022-10-05T00:32:06.003Z,100764.88
2022-10-05T00:34:47.854Z,100762.38
2022-10-05T00:37:21.506Z,100760.81
2022-10-05T00:40:00.189Z,100765.31
2022-10-05T00:42:48.851Z,100783.19
2022-10-05T00:45:27.617Z,100774.50
2022-10-05T00:48:09.752Z,100782.50
2022-10-05T00:50:59.898Z,100781.69
2022-10-05T00:53:45.418Z,100777.44
2022-10-05T00:56:38.352Z,100784.53
2022-10-05T00:59:27.157Z,100781.03
2022-10-05T01:02:09.816Z,100775.81
2022-10-05T01:04:50.399Z,100766.13
2022-10-05T01:07:33.964Z,100771.47
2022-10-05T01:10:16.049Z,100768.00
2022-10-05T01:13:00.485Z,100768.91
2022-10-05T01:15:40.623Z,100780.50
2022-10-05T01:18:19.046Z,100760.09
2022-10-05T01:21:01.108Z,100762.66
2022-10-05T01:24:21.973Z,100769.50
2022-10-05T01:27:16.943Z,100772.03
2022-10-05T01:29:58.171Z,100770.25
2022-10-05T01:32:37.119Z,100772.91
2022-10-05T01:35:21.328Z,100768.41
2022-10-05T01:38:03.751Z,100774.53
2022-10-05T01:40:42.723Z,100772.84
2022-10-05T01:43:25.123Z,100777.31
2022-10-05T01:46:08.305Z,100778.25
2022-10-05T01:48:49.964Z,100782.66
2022-10-05T01:51:34.790Z,100780.91
2022-10-05T01:54:20.043Z,100790.78
2022-10-05T01:57:03.570Z,100796.25
2022-10-05T01:59:52.198Z,100802.53
2022-10-05T02:02:30.331Z,100801.78
2022-10-05T02:05:11.993Z,100794.78
2022-10-05T02:07:52.629Z,100787.81
2022-10-05T02:10:35.305Z,100785.19
2022-10-05T02:13:15.794Z,100769.28
2022-10-05T02:15:55.345Z,100760.47
2022-10-05T02:21:25.049Z,100760.69
2022-10-05T02:24:05.552Z,100758.94
2022-10-05T02:26:40.773Z,100743.00
2022-10-05T02:29:21.486Z,100742.19
2022-10-05T02:32:00.377Z,100743.09
2022-10-05T02:34:39.741Z,100741.31
2022-10-05T02:37:34.492Z,100755.59
2022-10-05T02:40:19.607Z,100761.88
2022-10-05T02:43:02.004Z,100762.78
2022-10-05T02:45:47.513Z,100751.22
2022-10-05T02:48:36.002Z,100747.63
2022-10-05T02:51:22.397Z,100768.91
2022-10-05T02:54:09.127Z,100760.00
2022-10-05T02:56:49.444Z,100751.06
2022-10-05T02:59:30.210Z,100743.09
2022-10-05T03:02:16.541Z,100738.78
2022-10-05T03:05:00.222Z,100741.53
2022-10-05T03:07:41.462Z,100751.53
2022-10-05T03:10:26.815Z,100748.91
2022-10-05T03:13:07.693Z,100748.13
2022-10-05T03:15:51.801Z,100749.06
2022-10-05T03:18:41.523Z,100740.16
2022-10-05T03:21:30.461Z,100738.41
2022-10-05T03:24:35.574Z,100755.16
2022-10-05T03:27:24.497Z,100751.69
2022-10-05T03:30:05.917Z,100766.75
2022-10-05T03:32:52.427Z,100755.97
2022-10-05T03:35:29.608Z,100757.34
2022-10-05T03:38:12.314Z,100754.94
2022-10-05T03:40:51.933Z,100753.19
2022-10-05T03:43:48.663Z,100750.34
2022-10-05T03:46:33.412Z,100742.41
2022-10-05T03:49:15.587Z,100733.50
2022-10-05T03:51:53.270Z,100728.22
2022-10-05T03:54:34.387Z,100727.34
2022-10-05T03:57:13.604Z,100724.72
2022-10-05T03:59:57.777Z,100716.78
2022-10-05T04:02:35.491Z,100721.28
2022-10-05T04:05:18.574Z,100729.28
2022-10-05T04:07:57.759Z,100731.09
2022-10-05T04:10:41.051Z,100735.50
2022-10-05T04:13:25.258Z,100729.19
2022-10-05T04:16:05.429Z,100723.84
2022-10-05T04:18:44.889Z,100725.59
2022-10-05T04:21:23.896Z,100724.63
2022-10-05T04:24:05.743Z,100731.72
2022-10-05T04:26:42.014Z,100729.97
2022-10-05T04:29:24.403Z,100729.97
2022-10-05T04:32:13.246Z,100733.44
2022-10-05T04:35:00.866Z,100724.53
2022-10-05T04:37:46.501Z,100733.59
2022-10-05T04:40:37.535Z,100711.41
2022-10-05T04:43:16.804Z,100705.22
2022-10-05T04:46:08.493Z,100715.03
2022-10-05T04:49:10.060Z,100724.84
2022-10-05T04:51:52.831Z,100736.47
2022-10-05T04:54:41.379Z,100734.69
2022-10-05T04:57:19.720Z,100740.06
2022-10-05T05:00:05.817Z,100754.19
2022-10-05T05:02:53.952Z,100770.19
2022-10-05T05:06:04.988Z,100754.94
2022-10-05T05:09:02.737Z,100765.41
2022-10-05T05:11:49.826Z,100761.66
2022-10-05T05:14:48.105Z,100767.47
2022-10-05T05:17:35.011Z,100756.75
2022-10-05T05:20:21.088Z,100758.50
2022-10-05T05:23:07.263Z,100751.38
2022-10-05T05:25:52.296Z,100749.59
2022-10-05T05:28:37.209Z,100737.03
2022-10-05T05:31:21.491Z,100745.81
2022-10-05T05:34:03.373Z,100741.31
2022-10-05T05:36:50.394Z,100743.81
2022-10-05T05:39:29.896Z,100752.72
2022-10-05T05:42:21.454Z,100743.66
2022-10-05T05:44:58.925Z,100746.38
2022-10-05T05:47:37.971Z,100743.66
2022-10-05T05:50:32.593Z,100759.44
2022-10-05T05:53:17.191Z,100748.75
2022-10-05T05:56:19.538Z,100741.50
2022-10-05T05:58:57.136Z,100741.34
2022-10-05T06:01:35.672Z,100742.03
2022-10-05T06:04:24.014Z,100745.31
2022-10-05T06:06:59.373Z,100740.06
2022-10-05T06:09:39.238Z,100746.34
2022-10-05T06:12:24.235Z,100754.78
2022-10-05T06:15:01.861Z,100739.19
2022-10-05T06:17:40.369Z,100741.31
2022-10-05T06:20:23.706Z,100738.06
2022-10-05T06:23:03.248Z,100732.94
2022-10-05T06:25:46.139Z,100726.84
2022-10-05T06:28:21.598Z,100734.28
2022-10-05T06:31:11.647Z,100725.34
2022-10-05T06:33:52.522Z,100715.69
2022-10-05T06:36:45.184Z,100720.31
2022-10-05T06:40:00.067Z,100732.06
2022-10-05T06:43:14.814Z,100728.97
2022-10-05T06:46:24.257Z,100736.81
2022-10-05T06:49:24.711Z,100741.91
2022-10-05T06:52:26.748Z,100748.66
2022-10-05T06:55:17.435Z,100758.03
2022-10-05T06:58:06.764Z,100763.03
2022-10-05T07:00:45.827Z,100749.34
2022-10-05T07:03:29.223Z,100748.97
2022-10-05T07:06:21.796Z,100755.53
2022-10-05T07:09:19.869Z,100751.53
2022-10-05T07:12:08.134Z,100750.13
2022-10-05T07:15:03.944Z,100744.84
2022-10-05T07:17:51.750Z,100746.78
2022-10-05T07:20:34.676Z,100742.44
2022-10-05T07:23:28.925Z,100742.41
2022-10-05T07:26:08.763Z,100734.19
2022-10-05T07:28:49.460Z,100747.31
2022-10-05T07:31:34.789Z,100741.78
2022-10-05T07:34:17.013Z,100737.94
2022-10-05T07:37:14.832Z,100743.06
2022-10-05T07:40:01.454Z,100738.34
2022-10-05T07:42:52.280Z,100739.03
2022-10-05T07:45:35.228Z,100737.66
2022-10-05T07:48:20.764Z,100727.91
2022-10-05T07:51:04.974Z,100737.78
2022-10-05T07:53:44.550Z,100733.75
2022-10-05T07:56:27.364Z,100725.59
2022-10-05T07:59:06.992Z,100719.84
2022-10-05T08:01:48.049Z,100705.59
2022-10-05T08:04:25.965Z,100696.78
2022-10-05T08:07:07.135Z,100705.78
2022-10-05T08:09:47.230Z,100701.38
2022-10-05T08:12:26.299Z,100695.03
2022-10-05T08:15:04.955Z,100697.44
2022-10-05T08:17:50.458Z,100695.09
2022-10-05T08:20:41.792Z,100705.88
2022-10-05T08:23:23.896Z,100693.72
2022-10-05T08:26:22.786Z,100702.88
2022-10-05T08:29:12.822Z,100696.44
2022-10-05T08:31:50.758Z,100704.44
2022-10-05T08:34:32.265Z,100696.94
2022-10-05T08:37:12.579Z,100703.31
2022-10-05T08:40:05.666Z,100696.16
2022-10-05T08:43:02.245Z,100694.22
2022-10-05T08:46:20.270Z,100699.31
2022-10-05T08:49:23.038Z,100688.91
2022-10-05T08:52:29.272Z,100684.00
2022-10-05T08:55:47.634Z,100682.94
2022-10-05T08:59:13.034Z,100690.16
2022-10-05T09:02:07.592Z,100697.19
2022-10-05T09:05:19.757Z,100689.69
2022-10-05T09:08:21.170Z,100690.69
2022-10-05T09:11:15.186Z,100690.59
2022-10-05T09:14:09.298Z,100695.31
2022-10-05T09:17:17.834Z,100684.44
2022-10-05T09:20:16.035Z,100689.94
2022-10-05T09:23:19.116Z,100683.19
2022-10-05T09:26:01.102Z,100676.78
2022-10-05T09:28:45.076Z,100690.47
2022-10-05T09:31:52.400Z,100679.63
2022-10-05T09:35:29.371Z,100681.84
2022-10-05T09:38:20.649Z,100683.16
2022-10-05T09:41:39.968Z,100670.06
2022-10-05T09:44:37.461Z,100675.69
2022-10-05T09:47:50.805Z,100663.94
2022-10-05T09:51:03.979Z,100674.44
2022-10-05T09:54:19.857Z,100679.72
2022-10-05T09:57:18.154Z,100689.81
2022-10-05T10:00:16.646Z,100686.16
2022-10-05T10:03:14.929Z,100696.81
2022-10-05T10:06:20.406Z,100693.13
2022-10-05T10:09:15.980Z,100689.84
2022-10-05T10:12:09.772Z,100686.44
2022-10-05T10:15:27.314Z,100681.88
2022-10-05T10:18:29.802Z,100683.75
2022-10-05T10:21:42.333Z,100675.72
2022-10-05T10:24:39.865Z,100683.97
2022-10-05T10:27:36.115Z,100670.50
2022-10-05T10:30:56.090Z,100664.19
2022-10-05T10:33:56.601Z,100671.59
2022-10-05T10:36:51.428Z,100672.00
2022-10-05T10:39:40.561Z,100663.13
2022-10-05T10:42:37.000Z,100664.25
2022-10-05T10:45:28.824Z,100665.28
2022-10-05T10:48:05.193Z,100659.25
2022-10-05T10:51:11.971Z,100664.28
2022-10-05T10:54:15.996Z,100662.31
2022-10-05T10:57:04.564Z,100678.63
2022-10-05T11:00:23.042Z,100671.59
2022-10-05T11:03:11.257Z,100659.38
2022-10-05T11:06:31.477Z,100663.38
2022-10-05T11:09:26.140Z,100646.38
2022-10-05T11:12:22.345Z,100651.22
2022-10-05T11:15:34.118Z,100648.28
2022-10-05T11:18:16.396Z,100641.03
2022-10-05T11:21:19.629Z,100633.41
2022-10-05T11:24:31.462Z,100639.63
2022-10-05T11:27:25.028Z,100640.75
2022-10-05T11:30:35.565Z,100641.25
2022-10-05T11:33:44.467Z,100640.66
2022-10-05T11:36:46.906Z,100627.56
2022-10-05T11:39:39.435Z,100620.63
2022-10-05T11:42:43.356Z,100622.94
2022-10-05T11:45:36.294Z,100618.72
2022-10-05T11:48:36.703Z,100614.28
2022-10-05T11:51:44.771Z,100617.75
2022-10-05T11:55:09.416Z,100618.69
2022-10-05T11:57:55.379Z,100625.03
2022-10-05T12:00:42.356Z,100624.50
2022-10-05T12:03:36.778Z,100624.59
2022-10-05T12:06:26.911Z,100614.34
2022-10-05T12:09:30.405Z,100616.44
2022-10-05T12:12:16.046Z,100610.91
2022-10-05T12:15:00.630Z,100606.38
2022-10-05T12:17:43.360Z,100606.03
2022-10-05T12:20:22.163Z,100616.38
2022-10-05T12:23:04.399Z,100611.59
2022-10-05T12:25:44.298Z,100607.06
2022-10-05T12:28:22.442Z,100614.75
2022-10-05T12:31:15.452Z,100613.94
2022-10-05T12:33:58.599Z,100603.03
2022-10-05T12:37:03.098Z,100596.44
2022-10-05T12:39:45.834Z,100595.59
2022-10-05T12:42:31.660Z,100584.34
2022-10-05T12:45:32.580Z,100592.41
2022-10-05T12:48:20.949Z,100590.16
2022-10-05T12:51:01.544Z,100587.97
2022-10-05T12:53:49.411Z,100593.41
2022-10-05T12:56:33.306Z,100576.56
2022-10-05T12:59:19.316Z,100578.44
2022-10-05T13:02:00.419Z,100570.31
2022-10-05T13:04:42.907Z,100565.91
2022-10-05T13:07:41.209Z,100562.91
2022-10-05T13:10:29.431Z,100567.38
2022-10-05T13:13:17.895Z,100563.94
2022-10-05T13:16:06.398Z,100566.34
2022-10-05T13:18:55.653Z,100572.53
2022-10-05T13:21:41.172Z,100570.53
2022-10-05T13:24:23.359Z,100565.72
2022-10-05T13:27:08.641Z,100570.88
2022-10-05T13:29:52.305Z,100570.63
2022-10-05T13:32:33.585Z,100572.06
2022-10-05T13:35:39.164Z,100574.16
2022-10-05T13:38:30.499Z,100574.06
2022-10-05T13:41:15.498Z,100569.38
2022-10-05T13:44:00.292Z,100581.63
2022-10-05T13:46:39.715Z,100573.88
2022-10-05T13:49:29.589Z,100579.41
2022-10-05T13:52:18.100Z,100569.56
2022-10-05T13:54:59.982Z,100573.22
2022-10-05T13:57:47.686Z,100573.88
2022-10-05T14:00:26.597Z,100568.34
2022-10-05T14:03:02.310Z,100568.25
2022-10-05T14:05:38.137Z,100571.78
2022-10-05T14:08:18.570Z,100560.88
2022-10-05T14:10:53.948Z,100565.91
2022-10-05T14:13:35.971Z,100566.53
2022-10-05T14:16:21.790Z,100560.66
2022-10-05T14:18:58.801Z,100555.25
2022-10-05T14:21:33.761Z,100557.84
2022-10-05T14:24:43.082Z,100555.88
2022-10-05T14:27:23.556Z,100553.53
2022-10-05T14:30:01.283Z,100552.06
2022-10-05T14:32:51.946Z,100551.16
2022-10-05T14:35:27.713Z,100548.19
2022-10-05T14:38:09.160Z,100551.25
2022-10-05T14:40:45.502Z,100541.78
2022-10-05T14:43:24.292Z,100536.81
2022-10-05T14:46:01.580Z,100537.16
2022-10-05T14:48:42.972Z,100538.38
2022-10-05T14:51:32.149Z,100530.47
2022-10-05T14:54:27.910Z,100523.50
2022-10-05T14:57:25.390Z,100523.72
2022-10-05T15:00:12.742Z,100516.06
2022-10-05T15:03:22.790Z,100528.84
2022-10-05T15:06:00.429Z,100528.56
2022-10-05T15:09:00.847Z,100520.44
2022-10-05T15:11:43.570Z,100533.53
2022-10-05T15:14:21.540Z,100524.06
2022-10-05T15:16:59.056Z,100530.66
2022-10-05T15:19:45.028Z,100519.84
2022-10-05T15:22:33.239Z,100519.22
2022-10-05T15:25:19.592Z,100515.06
2022-10-05T15:28:00.956Z,100506.56
2022-10-05T15:30:39.599Z,100510.72
2022-10-05T15:33:19.549Z,100507.34
2022-10-05T15:36:20.164Z,100505.41
2022-10-05T15:39:03.981Z,100509.63
2022-10-05T15:41:53.074Z,100513.56
2022-10-05T15:44:40.347Z,100510.19
2022-10-05T15:47:20.436Z,100506.75
2022-10-05T15:50:03.577Z,100508.91
2022-10-05T15:52:44.628Z,100513.69
2022-10-05T15:55:30.107Z,100516.72
2022-10-05T15:58:32.426Z,100515.97
2022-10-05T16:01:11.653Z,100510.34
2022-10-05T16:03:51.540Z,100515.31
2022-10-05T16:06:56.828Z,100511.00
2022-10-05T16:09:45.189Z,100501.63
2022-10-05T16:12:26.504Z,100510.03
2022-10-05T16:15:16.974Z,100510.25
2022-10-05T16:18:07.558Z,100500.53
2022-10-05T16:20:51.365Z,100501.63
2022-10-05T16:23:35.592Z,100494.69
2022-10-05T16:26:19.735Z,100501.28
2022-10-05T16:29:04.194Z,100492.41
2022-10-05T16:31:47.284Z,100491.75
2022-10-05T16:34:32.854Z,100492.84
2022-10-05T16:37:14.211Z,100479.66
2022-10-05T16:39:58.526Z,100476.97
2022-10-05T16:42:46.526Z,100484.19
2022-10-05T16:45:44.689Z,100479.03
2022-10-05T16:48:26.149Z,100488.28
2022-10-05T16:51:14.083Z,100489.34
2022-10-05T16:54:01.807Z,100487.84
2022-10-05T16:56:42.682Z,100490.66
2022-10-05T16:59:43.333Z,100486.13
2022-10-05T17:02:30.402Z,100481.81
2022-10-05T17:05:21.232Z,100485.56
2022-10-05T17:08:10.340Z,100481.25
2022-10-05T17:10:58.363Z,100491.28
2022-10-05T17:14:06.694Z,100488.69
2022-10-05T17:16:54.670Z,100495.47
2022-10-05T17:19:46.787Z,100488.56
2022-10-05T17:22:27.600Z,100493.72
2022-10-05T17:25:11.671Z,100490.56
2022-10-05T17:27:54.135Z,100481.16
2022-10-05T17:30:48.584Z,100486.09
2022-10-05T17:33:29.197Z,100480.34
2022-10-05T17:36:38.732Z,100473.44
2022-10-05T17:39:16.439Z,100472.31
2022-10-05T17:41:50.434Z,100484.41
2022-10-05T17:44:28.326Z,100478.47
2022-10-05T17:47:04.171Z,100476.94
2022-10-05T17:50:10.056Z,100472.63
2022-10-05T17:53:02.585Z,100474.88
2022-10-05T17:55:48.347Z,100474.16
2022-10-05T17:59:01.188Z,100474.16
2022-10-05T18:01:38.316Z,100478.13
2022-10-05T18:04:34.575Z,100478.78
2022-10-05T18:07:23.941Z,100473.41
2022-10-05T18:10:25.936Z,100473.31
2022-10-05T18:13:45.583Z,100477.75
2022-10-05T18:16:56.267Z,100465.03
2022-10-05T18:19:32.552Z,100449.28
2022-10-05T18:22:27.942Z,100456.50
2022-10-05T18:25:10.582Z,100459.19
2022-10-05T18:28:07.096Z,100459.09
2022-10-05T18:30:59.469Z,100461.91
2022-10-05T18:33:50.726Z,100465.44
2022-10-05T18:36:40.634Z,100467.38
2022-10-05T18:39:24.486Z,100472.75
2022-10-05T18:42:08.840Z,100470.22
2022-10-05T18:44:47.541Z,100474.78
2022-10-05T18:47:31.437Z,100471.59
2022-10-05T18:50:18.815Z,100479.00
2022-10-05T18:53:03.480Z,100466.84
2022-10-05T18:55:43.445Z,100460.09
2022-10-05T18:58:26.135Z,100458.69
2022-10-05T19:01:33.402Z,100458.78
2022-10-05T19:04:22.434Z,100452.13
2022-10-05T19:07:07.346Z,100454.34
2022-10-05T19:09:58.598Z,100460.00
2022-10-05T19:12:44.394Z,100464.72
2022-10-05T19:15:28.930Z,100465.75
2022-10-05T19:18:26.445Z,100463.16
2022-10-05T19:21:07.605Z,100460.00
2022-10-05T19:23:56.722Z,100467.13
2022-10-05T19:26:53.945Z,100467.97
2022-10-05T19:29:41.349Z,100458.06
2022-10-05T19:32:27.831Z,100457.31
2022-10-05T19:35:19.909Z,100454.53
2022-10-05T19:38:15.309Z,100464.53
2022-10-05T19:40:59.949Z,100459.16
2022-10-05T19:43:50.776Z,100450.28
2022-10-05T19:46:35.785Z,100461.22
2022-10-05T19:49:12.179Z,100462.28
2022-10-05T19:51:49.913Z,100463.34
2022-10-05T19:54:25.317Z,100462.56
2022-10-05T19:57:03.538Z,100469.00
2022-10-05T19:59:40.627Z,100471.88
2022-10-05T20:02:17.179Z,100464.84
2022-10-05T20:04:55.167Z,100466.84
2022-10-05T20:07:28.821Z,100475.00
2022-10-05T20:10:18.874Z,100470.81
2022-10-05T20:13:00.361Z,100476.13
2022-10-05T20:15:52.873Z,100475.56
2022-10-05T20:18:58.640Z,100472.97
2022-10-05T20:21:47.628Z,100472.28
2022-10-05T20:24:23.720Z,100469.06
2022-10-05T20:27:13.864Z,100476.38
2022-10-05T20:29:49.541Z,100481.91
2022-10-05T20:32:26.381Z,100488.25
2022-10-05T20:35:06.944Z,100486.63
2022-10-05T20:37:43.083Z,100484.03
2022-10-05T20:40:17.810Z,100489.47
2022-10-05T20:43:00.468Z,100487.75
2022-10-05T20:45:33.998Z,100483.44
2022-10-05T20:48:07.677Z,100487.06
2022-10-05T20:50:45.068Z,100488.09
2022-10-05T20:53:20.274Z,100484.66
2022-10-05T20:56:04.716Z,100486.56
2022-10-05T20:58:38.416Z,100492.03
2022-10-05T21:01:18.482Z,100498.50
2022-10-05T21:03:52.285Z,100499.56
2022-10-05T21:06:28.766Z,100500.75
2022-10-05T21:09:03.850Z,100503.28
2022-10-05T21:11:37.336Z,100507.22
2022-10-05T21:14:11.660Z,100523.41
2022-10-05T21:16:51.373Z,100518.22
2022-10-05T21:19:25.023Z,100521.84
2022-10-05T21:21:59.293Z,100515.94
2022-10-05T21:24:35.519Z,100510.41
2022-10-05T21:27:11.408Z,100518.72
2022-10-05T21:29:45.524Z,100523.41
2022-10-05T21:32:19.006Z,100516.38
2022-10-05T21:34:54.777Z,100514.63
2022-10-05T21:37:28.251Z,100509.44
2022-10-05T21:40:03.208Z,100521.16
2022-10-05T21:42:36.762Z,100520.34
2022-10-05T21:45:11.510Z,100521.31
2022-10-05T21:47:45.018Z,100517.88
2022-10-05T21:50:18.658Z,100524.19
2022-10-05T21:52:52.013Z,100529.91
2022-10-05T21:55:39.208Z,100532.22
2022-10-05T21:58:14.598Z,100536.09
2022-10-05T22:00:48.264Z,100535.34
2022-10-05T22:03:21.744Z,100538.28
2022-10-05T22:05:58.046Z,100534.47
2022-10-05T22:08:32.507Z,100529.47
2022-10-05T22:11:14.087Z,100538.19
2022-10-05T22:13:52.310Z,100540.25
2022-10-05T22:16:31.573Z,100541.28
2022-10-05T22:19:06.527Z,100542.34
2022-10-05T22:21:41.952Z,100538.00
2022-10-05T22:24:15.796Z,100539.91
2022-10-05T22:26:51.983Z,100543.44
2022-10-05T22:29:25.610Z,100547.13
2022-10-05T22:31:58.912Z,100541.28
2022-10-05T22:34:35.067Z,100548.16
2022-10-05T22:37:13.124Z,100546.56
2022-10-05T22:39:46.727Z,100540.53
2022-10-05T22:42:21.688Z,100545.09
2022-10-05T22:44:55.242Z,100541.53
2022-10-05T22:47:28.716Z,100546.13
2022-10-05T22:50:05.290Z,100550.72
2022-10-05T22:52:42.536Z,100548.19
2022-10-05T22:55:18.884Z,100553.56
2022-10-05T22:57:53.946Z,100552.78
2022-10-05T23:00:40.335Z,100551.03
2022-10-05T23:03:14.195Z,100556.41
2022-10-05T23:05:47.679Z,100555.53
2022-10-05T23:08:21.257Z,100554.66
2022-10-05T23:10:54.716Z,100561.94
2022-10-05T23:13:29.836Z,100555.72
2022-10-05T23:16:07.952Z,100559.25
2022-10-05T23:18:42.016Z,100564.69
2022-10-05T23:21:15.808Z,100565.53
2022-10-05T23:23:51.346Z,100570.91
2022-10-05T23:26:26.367Z,100560.19
2022-10-05T23:29:01.280Z,100570.06
2022-10-05T23:31:37.001Z,100570.06
2022-10-05T23:34:10.475Z,100574.56
2022-10-05T23:36:43.933Z,100573.75
2022-10-05T23:39:17.368Z,100578.19
2022-10-05T23:41:50.843Z,100568.47
2022-10-05T23:44:25.764Z,100575.72
2022-10-05T23:46:59.221Z,100569.66
2022-10-05T23:49:32.680Z,100559.03
2022-10-05T23:52:06.145Z,100563.59
2022-10-05T23:54:39.614Z,100561.00
2022-10-05T23:57:17.429Z,100558.47
2022-10-05T23:59:52.428Z,100561.31
